Time;durP1;ratioP1;P1;durP2;ratioP2;P2;SDS_P1;SDS_P2;PMS_P1;PMS_P2;Temp;Humidity;BMP_temperature;BMP_pressure;BME280_temperature;BME280_humidity;BME280_pressure;Samples;Min_cycle;Max_cycle;Signal;HPM_P1;HPM_P2
2022/11/22 00:00:06;;;;;;;0.22;0.22;;;6.70;99.90;;;;;;5050783;28;20213;-71
2022/11/22 00:02:33;;;;;;;0.00;0.00;;;6.70;99.90;;;;;;5051209;28;20174;-71
2022/11/22 00:04:59;;;;;;;0.00;0.00;;;6.70;99.90;;;;;;5033508;28;20190;-71
2022/11/22 00:07:24;;;;;;;0.00;0.00;;;6.70;99.90;;;;;;5050983;28;20744;-71
2022/11/22 00:09:50;;;;;;;0.00;0.00;;;6.70;99.90;;;;;;5051123;28;20165;-71
2022/11/22 00:12:15;;;;;;;0.00;0.00;;;6.70;99.90;;;;;;5050832;28;20189;-70
2022/11/22 00:14:41;;;;;;;0.00;0.00;;;6.70;99.90;;;;;;5050981;28;20285;-71
2022/11/22 00:17:06;;;;;;;0.10;0.10;;;6.70;99.90;;;;;;5050881;28;20740;-72
2022/11/22 00:19:32;;;;;;;0.00;0.00;;;6.70;99.90;;;;;;5051189;28;20269;-72
2022/11/22 00:21:57;;;;;;;0.00;0.00;;;6.70;99.90;;;;;;5051199;28;20181;-72
2022/11/22 00:24:23;;;;;;;0.10;0.10;;;6.70;99.90;;;;;;5050798;28;20228;-72
2022/11/22 00:26:48;;;;;;;0.03;0.03;;;6.80;99.90;;;;;;5050364;28;20688;-71
2022/11/22 00:29:14;;;;;;;0.43;0.43;;;6.70;99.90;;;;;;5050705;28;20178;-72
2022/11/22 00:31:40;;;;;;;0.00;0.00;;;6.70;99.90;;;;;;5051092;28;20181;-72
2022/11/22 00:34:06;;;;;;;0.00;0.00;;;6.70;99.90;;;;;;5049853;28;20235;-71
2022/11/22 00:36:31;;;;;;;0.00;0.00;;;6.70;99.90;;;;;;5029807;28;20237;-72
2022/11/22 00:38:57;;;;;;;0.85;0.85;;;6.70;99.90;;;;;;5050712;28;20213;-71
2022/11/22 00:41:22;;;;;;;0.00;0.00;;;6.70;99.90;;;;;;5054880;28;20212;-72
2022/11/22 00:43:48;;;;;;;0.00;0.00;;;6.70;99.90;;;;;;5054592;28;20450;-71
2022/11/22 00:46:13;;;;;;;0.00;0.00;;;6.70;99.90;;;;;;5054690;28;20216;-72
2022/11/22 00:48:39;;;;;;;0.80;0.08;;;6.70;99.90;;;;;;5053986;28;20174;-72
2022/11/22 00:51:04;;;;;;;0.32;0.32;;;6.80;99.90;;;;;;5054257;28;20189;-72
2022/11/22 00:53:30;;;;;;;0.17;0.17;;;6.80;99.90;;;;;;5054676;28;20176;-72
2022/11/22 00:55:55;;;;;;;0.00;0.00;;;6.80;99.90;;;;;;5054428;28;20656;-71
2022/11/22 00:58:21;;;;;;;0.00;0.00;;;6.80;99.90;;;;;;5054554;28;20181;-72
2022/11/22 01:00:48;;;;;;;0.00;0.00;;;6.80;99.90;;;;;;5054262;28;20227;-71
2022/11/22 01:03:14;;;;;;;0.00;0.00;;;6.80;99.90;;;;;;5054641;28;20709;-72
2022/11/22 01:05:40;;;;;;;0.00;0.00;;;6.80;99.90;;;;;;5054153;28;20213;-72
2022/11/22 01:08:06;;;;;;;0.00;0.00;;;6.80;99.90;;;;;;5054523;28;20174;-72
2022/11/22 01:10:34;;;;;;;0.00;0.00;;;6.90;99.90;;;;;;5053974;28;20600;-72
2022/11/22 01:13:00;;;;;;;0.00;0.00;;;6.90;99.90;;;;;;5054233;28;20238;-72
2022/11/22 01:15:26;;;;;;;0.00;0.00;;;6.90;99.90;;;;;;5053653;28;20186;-72
2022/11/22 01:17:51;;;;;;;0.00;0.00;;;6.90;99.90;;;;;;5053838;28;20197;-72
2022/11/22 01:20:17;;;;;;;0.00;0.00;;;6.90;99.90;;;;;;5053258;28;20216;-72
2022/11/22 01:22:42;;;;;;;0.00;0.00;;;6.90;99.90;;;;;;5053808;28;20277;-72
2022/11/22 01:25:09;;;;;;;0.00;0.00;;;7.00;99.90;;;;;;5053460;28;20276;-71
2022/11/22 01:27:34;;;;;;;0.00;0.00;;;7.00;99.90;;;;;;5054105;28;20223;-71
2022/11/22 01:30:00;;;;;;;0.00;0.00;;;7.00;99.90;;;;;;5053634;28;20562;-72
2022/11/22 01:32:27;;;;;;;0.00;0.00;;;7.00;99.90;;;;;;5053939;28;20174;-71
2022/11/22 01:34:52;;;;;;;0.00;0.00;;;7.00;99.90;;;;;;5053375;28;20173;-71
2022/11/22 01:37:18;;;;;;;0.00;0.00;;;7.00;99.90;;;;;;5053856;28;20709;-71
2022/11/22 01:39:43;;;;;;;0.00;0.00;;;7.00;99.90;;;;;;5053598;28;20177;-71
2022/11/22 01:42:12;;;;;;;0.00;0.00;;;7.00;99.90;;;;;;5053283;28;20710;-72
2022/11/22 01:44:42;;;;;;;0.00;0.00;;;7.00;99.90;;;;;;5053663;28;20692;-72
2022/11/22 01:47:19;;;;;;;0.10;0.10;;;7.10;99.90;;;;;;5053219;28;20252;-71
2022/11/22 01:49:55;;;;;;;0.00;0.00;;;7.00;99.90;;;;;;5051735;28;20184;-71
2022/11/22 01:52:24;;;;;;;0.00;0.00;;;7.10;99.90;;;;;;5053416;28;20543;-71
2022/11/22 01:54:55;;;;;;;0.00;0.00;;;7.10;99.90;;;;;;5053335;28;20173;-71
2022/11/22 01:57:26;;;;;;;0.05;0.05;;;7.10;99.90;;;;;;5053467;28;20180;-71
2022/11/22 02:00:00;;;;;;;0.00;0.00;;;7.10;99.90;;;;;;5053218;28;20640;-72
2022/11/22 02:02:26;;;;;;;0.10;0.10;;;7.10;99.90;;;;;;5053199;28;20651;-72
2022/11/22 02:04:54;;;;;;;0.00;0.00;;;7.10;99.90;;;;;;5053317;28;20243;-72
2022/11/22 02:07:31;;;;;;;0.00;0.00;;;7.10;99.90;;;;;;5051759;28;20240;-72
2022/11/22 02:09:56;;;;;;;0.00;0.00;;;7.10;99.90;;;;;;5053147;28;20205;-72
2022/11/22 02:12:26;;;;;;;0.00;0.00;;;7.10;99.90;;;;;;5052920;28;20220;-71
2022/11/22 02:14:52;;;;;;;0.00;0.00;;;7.20;99.90;;;;;;5053068;28;20216;-71
2022/11/22 02:17:18;;;;;;;0.00;0.00;;;7.20;99.90;;;;;;5052855;28;20227;-71
2022/11/22 02:19:48;;;;;;;0.00;0.00;;;7.20;99.90;;;;;;5052915;28;20193;-71
2022/11/22 02:22:49;;;;;;;0.00;0.00;;;7.20;99.90;;;;;;5053172;28;20176;-72
2022/11/22 02:25:26;;;;;;;0.00;0.00;;;7.20;99.90;;;;;;5010308;28;20178;-73
2022/11/22 02:27:52;;;;;;;0.00;0.00;;;7.30;99.90;;;;;;5045660;28;20208;-72
2022/11/22 02:30:18;;;;;;;0.00;0.00;;;7.30;99.90;;;;;;5053038;28;20169;-72
2022/11/22 02:32:44;;;;;;;0.00;0.00;;;7.30;99.90;;;;;;5052321;28;21053;-71
2022/11/22 02:35:22;;;;;;;0.00;0.00;;;7.30;99.90;;;;;;5049762;28;20256;-72
2022/11/22 02:37:53;;;;;;;0.00;0.00;;;7.30;99.90;;;;;;5052492;28;20607;-72
2022/11/22 02:40:20;;;;;;;0.00;0.00;;;7.30;99.90;;;;;;5046519;28;20169;-72
2022/11/22 02:42:57;;;;;;;0.00;0.00;;;7.30;99.90;;;;;;5052301;28;20185;-72
2022/11/22 02:45:23;;;;;;;0.10;0.10;;;7.30;99.90;;;;;;5051942;28;20186;-72
2022/11/22 02:47:48;;;;;;;0.00;0.00;;;7.30;99.90;;;;;;5052451;28;20243;-72
2022/11/22 02:50:14;;;;;;;0.00;0.00;;;7.30;99.90;;;;;;5052365;28;20178;-72
2022/11/22 02:52:39;;;;;;;0.00;0.00;;;7.30;99.90;;;;;;5052419;28;20226;-72
2022/11/22 02:55:05;;;;;;;0.00;0.00;;;7.30;99.90;;;;;;5052394;28;20248;-72
2022/11/22 02:57:31;;;;;;;0.00;0.00;;;7.30;99.90;;;;;;5051662;28;20201;-72
2022/11/22 02:59:57;;;;;;;0.00;0.00;;;7.40;99.90;;;;;;5051747;28;20173;-72
2022/11/22 03:02:22;;;;;;;0.00;0.00;;;7.40;99.90;;;;;;5039952;28;20185;-72
2022/11/22 03:04:48;;;;;;;0.00;0.00;;;7.50;99.90;;;;;;5044971;28;20193;-72
2022/11/22 03:07:15;;;;;;;0.00;0.00;;;7.50;99.90;;;;;;5052238;28;20244;-72
2022/11/22 03:09:41;;;;;;;0.00;0.00;;;7.50;99.90;;;;;;5052005;28;20182;-72
2022/11/22 03:12:07;;;;;;;0.00;0.00;;;7.50;99.90;;;;;;5052127;28;20181;-72
2022/11/22 03:14:32;;;;;;;0.00;0.00;;;7.60;99.90;;;;;;5051874;28;20229;-72
2022/11/22 03:16:58;;;;;;;0.00;0.00;;;7.60;99.90;;;;;;5051752;28;20181;-72
2022/11/22 03:19:23;;;;;;;0.00;0.00;;;7.60;99.90;;;;;;5052057;28;20235;-72
2022/11/22 03:21:49;;;;;;;0.00;0.00;;;7.60;99.90;;;;;;5051716;28;20181;-72
2022/11/22 03:24:15;;;;;;;0.00;0.00;;;7.60;99.90;;;;;;5050564;28;20264;-72
2022/11/22 03:26:44;;;;;;;0.05;0.05;;;7.60;99.90;;;;;;5050661;28;20252;-72
2022/11/22 03:29:10;;;;;;;0.00;0.00;;;7.60;99.90;;;;;;5051836;28;20201;-72
2022/11/22 03:31:35;;;;;;;0.00;0.00;;;7.60;99.90;;;;;;5052075;28;20231;-72
2022/11/22 03:34:01;;;;;;;0.00;0.00;;;7.60;99.90;;;;;;5051567;28;20264;-72
2022/11/22 03:36:26;;;;;;;0.00;0.00;;;7.60;99.90;;;;;;5051658;28;20217;-72
2022/11/22 03:38:52;;;;;;;0.00;0.00;;;7.60;99.90;;;;;;5051530;28;20193;-72
2022/11/22 03:41:17;;;;;;;0.00;0.00;;;7.60;99.90;;;;;;5044254;28;20178;-72
2022/11/22 03:43:43;;;;;;;0.00;0.00;;;7.60;99.90;;;;;;5036795;28;20670;-71
2022/11/22 03:46:18;;;;;;;0.00;0.00;;;7.60;99.90;;;;;;5051641;28;20695;-72
2022/11/22 03:48:44;;;;;;;0.00;0.00;;;7.60;99.90;;;;;;5051547;28;20191;-71
2022/11/22 03:51:09;;;;;;;0.00;0.00;;;7.60;99.90;;;;;;5050634;28;20189;-71
2022/11/22 03:53:35;;;;;;;0.13;0.13;;;7.60;99.90;;;;;;5051382;28;20540;-72
2022/11/22 03:56:01;;;;;;;0.32;0.32;;;7.60;99.90;;;;;;5051430;28;20184;-72
2022/11/22 03:58:26;;;;;;;0.00;0.00;;;7.60;99.90;;;;;;5051385;28;20177;-72
2022/11/22 04:00:52;;;;;;;0.00;0.00;;;7.60;99.90;;;;;;5051282;28;20265;-72
2022/11/22 04:03:17;;;;;;;0.30;0.30;;;7.50;99.90;;;;;;5050993;28;20177;-72
2022/11/22 04:05:44;;;;;;;0.00;0.00;;;7.60;99.90;;;;;;5050517;28;20197;-70
2022/11/22 04:08:09;;;;;;;0.00;0.00;;;7.60;99.90;;;;;;5050833;28;20268;-72
2022/11/22 04:10:35;;;;;;;0.00;0.00;;;7.50;99.90;;;;;;5049642;28;20272;-72
2022/11/22 04:13:00;;;;;;;0.00;0.00;;;7.50;99.90;;;;;;5051580;28;20344;-72
2022/11/22 04:15:26;;;;;;;0.08;0.08;;;7.50;99.90;;;;;;5053186;28;20223;-71
2022/11/22 04:17:52;;;;;;;0.00;0.00;;;7.50;99.90;;;;;;5054399;28;20173;-71
2022/11/22 04:23:16;;;;;;;0.00;0.00;;;7.40;99.90;;;;;;5054643;28;20221;-72
2022/11/22 04:25:45;;;;;;;0.03;0.03;;;7.40;99.90;;;;;;5050363;28;20221;-72
2022/11/22 04:28:12;;;;;;;0.00;0.00;;;7.40;99.90;;;;;;5055366;28;20188;-71
2022/11/22 04:33:22;;;;;;;0.00;0.00;;;7.30;99.90;;;;;;5054374;28;20188;-72
2022/11/22 04:35:48;;;;;;;0.00;0.00;;;7.30;99.90;;;;;;5054836;28;20178;-72
2022/11/22 04:38:15;;;;;;;0.00;0.00;;;7.30;99.90;;;;;;5054787;28;20220;-73
2022/11/22 04:40:41;;;;;;;0.00;0.00;;;7.20;99.90;;;;;;5052655;28;20174;-72
2022/11/22 04:45:53;;;;;;;0.00;0.00;;;7.20;99.90;;;;;;5054346;28;20400;-70
2022/11/22 04:48:18;;;;;;;0.00;0.00;;;7.20;99.90;;;;;;5054375;28;20264;-70
2022/11/22 04:53:30;;;;;;;0.00;0.00;;;7.10;99.90;;;;;;5054238;28;20226;-69
2022/11/22 04:55:56;;;;;;;0.00;0.00;;;7.10;99.90;;;;;;5052576;28;20212;-71
2022/11/22 04:58:22;;;;;;;0.00;0.00;;;7.00;99.90;;;;;;5054473;28;20615;-71
2022/11/22 05:00:48;;;;;;;0.00;0.00;;;7.00;99.90;;;;;;5054339;28;20184;-73
2022/11/22 05:03:14;;;;;;;0.00;0.00;;;7.00;99.90;;;;;;5053429;28;20260;-71
2022/11/22 05:05:41;;;;;;;0.00;0.00;;;7.00;99.90;;;;;;5053384;28;20260;-65
2022/11/22 05:08:08;;;;;;;0.00;0.00;;;6.90;99.90;;;;;;5054064;28;20213;-68
2022/11/22 05:13:21;;;;;;;0.00;0.00;;;6.90;99.90;;;;;;5053487;28;20228;-68
2022/11/22 05:15:48;;;;;;;0.00;0.00;;;6.80;99.90;;;;;;5053569;28;20653;-66
2022/11/22 05:18:13;;;;;;;0.00;0.00;;;6.80;99.90;;;;;;5053785;28;20315;-65
2022/11/22 05:20:39;;;;;;;0.00;0.00;;;6.80;99.90;;;;;;5052633;28;20264;-67
2022/11/22 05:25:48;;;;;;;0.00;0.00;;;6.70;99.90;;;;;;5051635;28;20300;-68
2022/11/22 05:28:14;;;;;;;0.00;0.00;;;6.70;99.90;;;;;;5054102;28;20716;-68
2022/11/22 05:30:40;;;;;;;0.00;0.00;;;6.70;99.90;;;;;;5054086;28;20181;-68
2022/11/22 05:33:06;;;;;;;0.00;0.00;;;6.70;99.90;;;;;;5054212;28;20200;-72
2022/11/22 05:35:32;;;;;;;0.00;0.00;;;6.60;99.90;;;;;;5053971;28;20632;-69
2022/11/22 05:37:57;;;;;;;0.00;0.00;;;6.60;99.90;;;;;;5053872;28;20590;-68
2022/11/22 05:40:24;;;;;;;0.00;0.00;;;6.60;99.90;;;;;;5053868;28;20178;-69
2022/11/22 05:42:49;;;;;;;0.00;0.00;;;6.50;99.90;;;;;;5052461;28;20184;-68
2022/11/22 05:45:15;;;;;;;0.00;0.00;;;6.50;99.90;;;;;;5052246;28;20173;-69
2022/11/22 05:47:40;;;;;;;0.00;0.00;;;6.50;99.90;;;;;;5053396;28;20239;-68
2022/11/22 05:50:07;;;;;;;0.00;0.00;;;6.50;99.90;;;;;;5053457;28;20170;-68
2022/11/22 05:52:33;;;;;;;0.00;0.00;;;6.50;99.90;;;;;;5053726;28;20203;-68
2022/11/22 05:54:59;;;;;;;0.00;0.00;;;6.50;99.90;;;;;;5053687;28;20173;-68
2022/11/22 05:57:24;;;;;;;0.00;0.00;;;6.50;99.90;;;;;;5053669;28;20184;-68
2022/11/22 05:59:50;;;;;;;0.00;0.00;;;6.50;99.90;;;;;;5053841;28;20200;-69
2022/11/22 06:02:15;;;;;;;0.10;0.10;;;6.50;99.90;;;;;;5053626;28;20621;-69
2022/11/22 06:04:41;;;;;;;0.00;0.00;;;6.50;99.90;;;;;;5053504;28;20169;-69
2022/11/22 06:07:07;;;;;;;0.00;0.00;;;6.40;99.90;;;;;;5053249;28;20608;-69
2022/11/22 06:09:32;;;;;;;0.00;0.00;;;6.50;99.90;;;;;;5053475;28;20173;-69
2022/11/22 06:11:58;;;;;;;0.00;0.00;;;6.40;99.90;;;;;;5053279;28;20226;-69
2022/11/22 06:14:24;;;;;;;0.10;0.10;;;6.50;99.90;;;;;;5053166;28;20308;-69
2022/11/22 06:16:52;;;;;;;0.10;0.10;;;6.50;99.90;;;;;;5033427;28;20182;-69
2022/11/22 06:19:18;;;;;;;0.00;0.00;;;6.50;99.90;;;;;;5033349;28;20166;-69
2022/11/22 06:21:43;;;;;;;0.47;0.47;;;6.50;99.90;;;;;;5033206;28;20182;-69
2022/11/22 06:24:09;;;;;;;0.00;0.00;;;6.40;99.90;;;;;;5033191;28;20224;-69
2022/11/22 06:26:35;;;;;;;0.00;0.00;;;6.40;99.90;;;;;;5033055;28;20289;-70
2022/11/22 06:29:01;;;;;;;0.00;0.00;;;6.40;99.90;;;;;;5031750;28;20181;-69
2022/11/22 06:31:27;;;;;;;0.00;0.00;;;6.40;99.90;;;;;;5033072;28;20186;-70
2022/11/22 06:33:55;;;;;;;0.00;0.00;;;6.40;99.90;;;;;;5032841;28;20203;-68
2022/11/22 06:36:23;;;;;;;0.00;0.00;;;6.40;99.90;;;;;;5032661;28;20182;-68
2022/11/22 06:38:49;;;;;;;0.00;0.00;;;6.40;99.90;;;;;;5032723;28;20650;-68
2022/11/22 06:41:17;;;;;;;0.00;0.00;;;6.50;99.90;;;;;;5040013;28;20201;-68
2022/11/22 06:43:44;;;;;;;0.00;0.00;;;6.50;99.90;;;;;;5052669;28;20170;-68
2022/11/22 06:46:10;;;;;;;0.00;0.00;;;6.50;99.90;;;;;;5052715;28;20738;-69
2022/11/22 06:48:38;;;;;;;0.00;0.00;;;6.50;99.90;;;;;;5051551;28;20278;-68
2022/11/22 06:51:12;;;;;;;0.00;0.00;;;6.50;99.90;;;;;;5052439;28;20185;-68
2022/11/22 06:53:38;;;;;;;0.00;0.00;;;6.40;99.90;;;;;;5052673;28;20169;-69
2022/11/22 06:56:07;;;;;;;0.00;0.00;;;6.40;99.90;;;;;;5052393;28;20192;-68
2022/11/22 06:58:33;;;;;;;0.20;0.20;;;6.40;99.90;;;;;;5052516;28;20240;-68
2022/11/22 07:01:03;;;;;;;0.00;0.00;;;6.40;99.90;;;;;;5052221;28;20189;-70
2022/11/22 07:03:29;;;;;;;0.00;0.00;;;6.40;99.90;;;;;;5052417;28;20177;-68
2022/11/22 07:05:55;;;;;;;0.00;0.00;;;6.40;99.90;;;;;;5052060;28;20205;-68
2022/11/22 07:08:21;;;;;;;0.10;0.10;;;6.40;99.90;;;;;;5052338;28;20188;-68
2022/11/22 07:10:46;;;;;;;0.00;0.00;;;6.40;99.90;;;;;;5052289;28;20161;-68
2022/11/22 07:13:12;;;;;;;0.00;0.00;;;6.40;99.90;;;;;;5051917;28;20225;-68
2022/11/22 07:15:37;;;;;;;0.00;0.00;;;6.40;99.90;;;;;;5052157;28;20267;-68
2022/11/22 07:18:03;;;;;;;0.00;0.00;;;6.40;99.90;;;;;;5052178;28;20181;-69
2022/11/22 07:20:28;;;;;;;0.10;0.10;;;6.40;99.90;;;;;;5052151;28;20181;-69
2022/11/22 07:22:54;;;;;;;0.03;0.03;;;6.50;99.90;;;;;;5051989;28;20170;-69
2022/11/22 07:25:20;;;;;;;0.00;0.00;;;6.40;99.90;;;;;;5050978;28;20670;-69
2022/11/22 07:27:45;;;;;;;0.00;0.00;;;6.50;99.90;;;;;;5052073;28;20674;-68
2022/11/22 07:30:11;;;;;;;0.00;0.00;;;6.50;99.90;;;;;;5052185;28;20264;-69
2022/11/22 07:32:37;;;;;;;1.88;0.10;;;6.50;99.90;;;;;;5052043;28;20199;-69
2022/11/22 07:35:03;;;;;;;0.00;0.00;;;6.60;99.90;;;;;;5052080;28;20177;-69
2022/11/22 07:37:30;;;;;;;0.00;0.00;;;6.60;99.90;;;;;;5050858;28;20592;-69
2022/11/22 07:39:56;;;;;;;0.00;0.00;;;6.60;99.90;;;;;;5050569;28;20173;-69
2022/11/22 07:42:22;;;;;;;0.00;0.00;;;6.60;99.90;;;;;;5050821;28;20275;-69
2022/11/22 07:44:47;;;;;;;0.00;0.00;;;6.60;99.90;;;;;;5051983;28;20227;-68
2022/11/22 07:47:13;;;;;;;0.00;0.00;;;6.70;99.90;;;;;;5051929;28;20268;-69
2022/11/22 07:49:38;;;;;;;0.38;0.10;;;6.70;99.90;;;;;;5054102;28;20629;-68
2022/11/22 07:52:04;;;;;;;0.00;0.00;;;6.70;99.90;;;;;;5056239;28;20511;-69
2022/11/22 07:54:30;;;;;;;0.00;0.00;;;6.80;99.90;;;;;;5056099;28;20177;-69
2022/11/22 07:56:55;;;;;;;0.52;0.52;;;6.80;99.90;;;;;;5055835;28;20248;-68
2022/11/22 07:59:21;;;;;;;0.00;0.00;;;6.90;99.90;;;;;;5054794;28;20177;-69
2022/11/22 08:01:46;;;;;;;0.35;0.35;;;6.90;99.90;;;;;;5054604;28;20534;-69
2022/11/22 08:04:12;;;;;;;0.00;0.00;;;7.00;99.90;;;;;;5055911;28;20188;-69
2022/11/22 08:06:38;;;;;;;0.43;0.43;;;7.00;99.90;;;;;;5055826;28;20303;-69
2022/11/22 08:09:03;;;;;;;0.00;0.00;;;7.10;99.90;;;;;;5055657;28;20173;-69
2022/11/22 08:11:29;;;;;;;0.00;0.00;;;7.10;99.90;;;;;;5054493;28;20185;-69
2022/11/22 08:13:54;;;;;;;0.00;0.00;;;7.20;99.90;;;;;;5055308;28;20688;-69
2022/11/22 08:16:20;;;;;;;0.20;0.20;;;7.20;99.90;;;;;;5055532;28;20188;-70
2022/11/22 08:18:48;;;;;;;0.85;0.45;;;7.20;99.90;;;;;;5055619;28;20170;-69
2022/11/22 08:21:15;;;;;;;0.15;0.15;;;7.30;99.90;;;;;;5055378;28;20687;-69
2022/11/22 08:23:42;;;;;;;0.22;0.22;;;7.30;99.90;;;;;;5055523;28;20213;-69
2022/11/22 08:26:11;;;;;;;0.00;0.00;;;7.40;99.90;;;;;;5055288;28;20205;-69
2022/11/22 08:28:37;;;;;;;0.05;0.05;;;7.50;99.90;;;;;;5055297;28;20264;-69
2022/11/22 08:31:06;;;;;;;0.00;0.00;;;7.50;99.90;;;;;;5055338;28;20181;-69
2022/11/22 08:33:31;;;;;;;0.00;0.00;;;7.50;99.90;;;;;;5055373;28;20660;-69
2022/11/22 08:35:57;;;;;;;0.00;0.00;;;7.60;99.90;;;;;;5055027;28;20283;-69
2022/11/22 08:38:23;;;;;;;0.00;0.00;;;7.60;99.90;;;;;;5055174;28;20183;-69
2022/11/22 08:40:49;;;;;;;0.00;0.00;;;7.60;99.90;;;;;;5054987;28;20268;-69
2022/11/22 08:43:15;;;;;;;0.00;0.00;;;7.70;99.90;;;;;;5054992;28;20181;-69
2022/11/22 08:45:41;;;;;;;0.00;0.00;;;7.70;99.90;;;;;;5055001;28;20251;-69
2022/11/22 08:48:06;;;;;;;0.00;0.00;;;7.70;99.90;;;;;;5054952;28;20212;-68
2022/11/22 08:50:32;;;;;;;0.00;0.00;;;7.80;99.90;;;;;;5054979;28;20315;-70
2022/11/22 08:53:00;;;;;;;0.13;0.13;;;7.80;99.90;;;;;;5054807;28;20192;-69
2022/11/22 08:55:25;;;;;;;0.00;0.00;;;7.80;99.90;;;;;;5054828;28;20625;-69
2022/11/22 08:57:51;;;;;;;0.00;0.00;;;7.90;99.90;;;;;;5054847;28;20170;-69
2022/11/22 09:00:17;;;;;;;0.00;0.00;;;8.00;99.90;;;;;;5053408;28;20613;-70
2022/11/22 09:02:42;;;;;;;0.00;0.00;;;8.00;99.90;;;;;;5054640;28;20637;-70
2022/11/22 09:05:08;;;;;;;0.10;0.10;;;7.90;99.90;;;;;;5053510;28;20225;-70
2022/11/22 09:07:34;;;;;;;0.00;0.00;;;7.90;99.90;;;;;;5054633;28;20221;-69
2022/11/22 09:10:00;;;;;;;0.00;0.00;;;8.00;99.90;;;;;;5054563;28;20617;-70
2022/11/22 09:12:25;;;;;;;0.00;0.00;;;8.00;99.90;;;;;;5054447;28;20203;-69
2022/11/22 09:14:51;;;;;;;0.00;0.00;;;8.10;99.90;;;;;;5053161;28;20263;-70
2022/11/22 09:17:16;;;;;;;0.00;0.00;;;8.10;99.90;;;;;;5054505;28;20658;-70
2022/11/22 09:19:43;;;;;;;0.00;0.00;;;8.10;99.90;;;;;;5054461;28;20192;-69
2022/11/22 09:22:08;;;;;;;0.00;0.00;;;8.10;99.90;;;;;;5053259;28;20186;-69
2022/11/22 09:24:34;;;;;;;0.00;0.00;;;8.10;99.90;;;;;;5052941;28;20193;-69
2022/11/22 09:26:59;;;;;;;0.00;0.00;;;8.10;99.90;;;;;;5054167;28;20209;-70
2022/11/22 09:29:25;;;;;;;0.00;0.00;;;8.20;99.90;;;;;;5054301;28;20189;-69
2022/11/22 09:31:51;;;;;;;0.00;0.00;;;8.20;99.90;;;;;;5054116;28;20182;-69
2022/11/22 09:34:17;;;;;;;0.00;0.00;;;8.20;99.90;;;;;;5054132;28;20272;-69
2022/11/22 09:36:42;;;;;;;0.00;0.00;;;8.20;99.90;;;;;;5054158;28;20200;-69
2022/11/22 09:39:08;;;;;;;0.05;0.05;;;8.20;99.90;;;;;;5053880;28;20181;-69
2022/11/22 09:41:55;;;;;;;0.00;0.00;;;8.20;99.90;;;;;;5053913;28;20672;-69
2022/11/22 09:44:42;;;;;;;0.05;0.05;;;8.30;99.90;;;;;;5053976;28;20190;-69
2022/11/22 09:47:10;;;;;;;0.00;0.00;;;8.40;99.90;;;;;;5053802;28;20694;-69
2022/11/22 09:49:54;;;;;;;0.00;0.00;;;8.40;99.90;;;;;;5053787;28;20232;-69
2022/11/22 09:52:26;;;;;;;0.10;0.10;;;8.40;99.90;;;;;;5052563;28;20213;-69
2022/11/22 09:55:28;;;;;;;0.00;0.00;;;8.40;99.90;;;;;;5053773;28;20227;-69
2022/11/22 09:58:26;;;;;;;0.00;0.00;;;8.40;99.90;;;;;;5041955;28;20188;-69
2022/11/22 10:01:01;;;;;;;0.00;0.00;;;8.50;99.90;;;;;;5053688;28;20183;-69
2022/11/22 10:04:01;;;;;;;0.00;0.00;;;8.60;99.90;;;;;;5053705;28;20245;-70
2022/11/22 10:06:36;;;;;;;0.00;0.00;;;8.80;99.90;;;;;;5053431;28;20304;-69
2022/11/22 10:09:29;;;;;;;0.00;0.00;;;8.90;99.90;;;;;;5053544;28;20177;-69
2022/11/22 10:12:28;;;;;;;0.00;0.00;;;8.90;99.90;;;;;;5052923;28;20188;-70
2022/11/22 10:15:07;;;;;;;0.00;0.00;;;9.10;99.90;;;;;;5053174;28;20193;-69
2022/11/22 10:18:15;;;;;;;0.00;0.00;;;9.10;99.90;;;;;;5053451;28;20196;-69
2022/11/22 10:20:41;;;;;;;0.00;0.00;;;9.10;99.90;;;;;;5050077;28;20182;-69
2022/11/22 10:23:20;;;;;;;0.00;0.00;;;9.10;99.90;;;;;;5053041;28;20235;-69
2022/11/22 10:26:03;;;;;;;0.00;0.00;;;9.10;99.90;;;;;;5052976;28;20200;-69
2022/11/22 10:28:35;;;;;;;0.00;0.00;;;9.20;99.90;;;;;;5053178;28;20177;-69
2022/11/22 10:31:24;;;;;;;0.00;0.00;;;9.20;99.90;;;;;;5052996;28;20511;-70
2022/11/22 10:34:22;;;;;;;0.00;0.00;;;9.20;99.90;;;;;;5052976;28;20173;-69
2022/11/22 10:37:13;;;;;;;0.00;0.00;;;9.30;99.90;;;;;;5052813;28;20181;-69
2022/11/22 10:40:02;;;;;;;0.00;0.00;;;9.40;99.90;;;;;;5051682;28;20205;-69
2022/11/22 10:42:52;;;;;;;0.88;0.22;;;9.40;99.90;;;;;;5043262;28;20212;-69
2022/11/22 10:45:33;;;;;;;0.00;0.00;;;9.50;99.90;;;;;;5033003;28;20174;-70
2022/11/22 10:48:23;;;;;;;0.00;0.00;;;9.50;99.90;;;;;;5031559;28;20676;-69
2022/11/22 10:50:52;;;;;;;0.00;0.00;;;9.50;99.90;;;;;;5032924;28;20232;-69
2022/11/22 10:53:25;;;;;;;0.00;0.00;;;9.50;99.90;;;;;;5032693;28;20170;-69
2022/11/22 10:56:29;;;;;;;0.15;0.15;;;9.50;99.90;;;;;;5032775;28;20174;-69
2022/11/22 10:59:28;;;;;;;0.00;0.00;;;9.50;99.90;;;;;;5031141;28;20316;-69
2022/11/22 11:02:12;;;;;;;0.22;0.10;;;9.60;99.90;;;;;;5032481;28;20201;-69
2022/11/22 11:04:40;;;;;;;0.00;0.00;;;9.60;99.90;;;;;;5032554;28;20212;-70
2022/11/22 11:07:14;;;;;;;0.00;0.00;;;9.60;99.90;;;;;;5032336;28;20217;-69
2022/11/22 11:09:48;;;;;;;0.00;0.00;;;9.70;99.90;;;;;;5032524;28;20176;-69
2022/11/22 11:12:26;;;;;;;0.00;0.00;;;9.70;99.90;;;;;;5032370;28;20178;-69
2022/11/22 11:14:58;;;;;;;0.00;0.00;;;9.70;99.90;;;;;;5036208;28;20267;-69
2022/11/22 11:17:31;;;;;;;0.00;0.00;;;9.70;99.90;;;;;;5052554;28;20185;-69
2022/11/22 11:20:01;;;;;;;0.00;0.00;;;9.80;99.90;;;;;;5052131;28;20683;-69
2022/11/22 11:22:32;;;;;;;0.00;0.00;;;9.80;99.90;;;;;;5051688;28;20223;-69
2022/11/22 11:25:26;;;;;;;0.00;0.00;;;9.90;99.90;;;;;;5052004;28;20173;-69
2022/11/22 11:27:52;;;;;;;0.00;0.00;;;9.90;99.90;;;;;;5052157;28;20181;-70
2022/11/22 11:30:18;;;;;;;0.00;0.00;;;9.90;99.90;;;;;;5052331;28;20319;-69
2022/11/22 11:32:55;;;;;;;0.00;0.00;;;9.80;99.90;;;;;;5052068;28;20181;-69
2022/11/22 11:35:25;;;;;;;0.00;0.00;;;9.90;99.90;;;;;;5052293;28;20180;-69
2022/11/22 11:37:51;;;;;;;0.00;0.00;;;10.00;99.90;;;;;;5052047;28;20174;-69
2022/11/22 11:40:29;;;;;;;0.00;0.00;;;10.00;99.90;;;;;;5051997;28;20315;-69
2022/11/22 11:43:18;;;;;;;0.00;0.00;;;10.00;99.90;;;;;;5051758;28;20181;-69
2022/11/22 11:45:44;;;;;;;0.00;0.00;;;10.00;99.90;;;;;;5050559;28;20193;-69
2022/11/22 11:48:33;;;;;;;0.08;0.08;;;10.00;99.90;;;;;;5051831;28;20186;-69
2022/11/22 11:51:23;;;;;;;0.00;0.00;;;10.00;99.90;;;;;;5051897;28;20166;-70
2022/11/22 11:54:00;;;;;;;0.00;0.00;;;10.00;99.90;;;;;;5051925;28;20272;-69
2022/11/22 11:56:33;;;;;;;0.00;0.00;;;10.00;99.90;;;;;;5051905;28;20181;-69
2022/11/22 11:59:05;;;;;;;0.00;0.00;;;10.00;99.90;;;;;;5051827;28;20541;-69
2022/11/22 12:01:34;;;;;;;0.05;0.05;;;10.00;99.90;;;;;;5051934;28;20173;-70
2022/11/22 12:04:03;;;;;;;0.00;0.00;;;10.00;99.90;;;;;;5051759;28;20192;-70
2022/11/22 12:06:30;;;;;;;0.00;0.00;;;10.00;99.90;;;;;;5051673;28;20223;-70
2022/11/22 12:08:57;;;;;;;0.00;0.00;;;10.10;99.90;;;;;;5051625;28;20186;-69
2022/11/22 12:11:39;;;;;;;0.13;0.13;;;10.10;99.90;;;;;;5051772;28;20189;-70
2022/11/22 12:14:09;;;;;;;0.00;0.00;;;10.10;99.90;;;;;;5050524;28;20263;-70
2022/11/22 12:16:46;;;;;;;0.10;0.10;;;10.10;99.90;;;;;;5051588;28;20180;-71
2022/11/22 12:19:43;;;;;;;0.00;0.00;;;10.10;99.90;;;;;;5051873;28;20205;-71
2022/11/22 12:22:41;;;;;;;0.00;0.00;;;10.20;99.90;;;;;;5051652;28;20519;-70
2022/11/22 12:25:31;;;;;;;0.00;0.00;;;10.10;99.90;;;;;;5051565;28;20268;-70
2022/11/22 12:28:01;;;;;;;0.13;0.13;;;10.10;99.90;;;;;;5051378;28;20235;-71
2022/11/22 12:30:27;;;;;;;0.00;0.00;;;10.10;99.90;;;;;;5051495;28;20644;-70
2022/11/22 12:33:00;;;;;;;0.43;0.43;;;10.10;99.90;;;;;;5051290;28;20209;-70
2022/11/22 12:35:28;;;;;;;0.00;0.00;;;10.10;99.90;;;;;;5053129;28;20652;-70
2022/11/22 12:38:10;;;;;;;0.10;0.10;;;10.10;99.90;;;;;;5055281;28;20177;-70
2022/11/22 12:40:41;;;;;;;0.00;0.00;;;10.00;99.90;;;;;;5055199;28;20256;-70
2022/11/22 12:43:24;;;;;;;0.00;0.00;;;10.00;99.90;;;;;;5054940;28;20186;-70
2022/11/22 12:45:55;;;;;;;0.05;0.05;;;9.90;99.90;;;;;;5055060;28;20208;-70
2022/11/22 12:48:28;;;;;;;0.00;0.00;;;9.80;99.90;;;;;;5055014;28;20185;-70
2022/11/22 12:50:59;;;;;;;0.00;0.00;;;9.90;99.90;;;;;;5053723;28;20173;-70
2022/11/22 12:53:31;;;;;;;0.63;0.20;;;9.80;99.90;;;;;;5055160;28;20619;-70
2022/11/22 12:56:05;;;;;;;0.15;0.15;;;9.80;99.90;;;;;;5054783;28;20188;-70
2022/11/22 12:58:36;;;;;;;0.00;0.00;;;9.70;99.90;;;;;;5054890;28;20211;-70
2022/11/22 13:01:16;;;;;;;0.28;0.28;;;9.80;99.90;;;;;;5054694;28;20182;-70
2022/11/22 13:04:00;;;;;;;0.00;0.00;;;9.70;99.90;;;;;;5054865;28;20184;-70
2022/11/22 13:06:33;;;;;;;0.00;0.00;;;9.70;99.90;;;;;;5054757;28;20209;-70
2022/11/22 13:09:05;;;;;;;0.00;0.00;;;9.70;99.90;;;;;;5054570;28;20201;-71
2022/11/22 13:11:38;;;;;;;0.00;0.00;;;9.70;99.90;;;;;;5054632;28;20174;-69
2022/11/22 13:14:14;;;;;;;0.00;0.00;;;9.80;99.90;;;;;;5054542;28;20233;-70
2022/11/22 13:16:39;;;;;;;0.00;0.00;;;9.80;99.90;;;;;;5054493;28;20191;-71
2022/11/22 13:19:07;;;;;;;0.00;0.00;;;9.80;99.90;;;;;;5054481;28;20533;-70
2022/11/22 13:21:44;;;;;;;0.00;0.00;;;9.80;99.90;;;;;;5053252;28;20692;-70
2022/11/22 13:24:28;;;;;;;0.13;0.13;;;9.80;99.90;;;;;;5054368;28;20173;-70